TFM - Tactical Decision Aid
ID: Runway Winds: CIG/VIS Threshold:

KPIT - Pittsburgh Intl, PA, US

Updated at: 1811 UTC 19 Aug 2019
Latest TAF at: 1735 UTC 19 Aug 2019

TAF Board

Time1751Z 19/19Z 19/20Z 19/21Z 19/22Z 19/23Z 20/00Z 20/01Z 20/02Z 20/03Z 20/04Z 20/05Z 20/06Z 20/07Z>>
Type OBS PRVL PRVL PRVL PRVL PRVL PRVL PRVL PRVL PRVL PRVL PRVL PRVL PRVL
VIS 10 >6 >6 >6 >6 >6 >6 >6 >6 >6 >6 >6 >6 >6
CIG -- -- -- -- -- -- -- -- -- -- -- -- -- --
Cover FEW SCT SCT SCT SCT SCT SCT SCT SCT SCT SCT SCT SCT SCT
FltCat VFR VFR VFR VFR VFR VFR VFR VFR VFR VFR VFR VFR VFR VFR
WX -- -- -- -- -- -- -- -- -- -- -- -- -- --
WDir 220 270 270 270 270 270 270 VRB VRB VRB VRB VRB VRB VRB
WSpd 7 7 7 7 7 7 7 3 3 3 3 3 3 3
WGst -- -- -- -- -- -- -- -- -- -- -- -- -- --

TDA Impact Legend

  None Marginal Slight Moderate High
Visibility (sm) >5 3≤X≤5 1≤X<3 0.5≤X<1 <0.5
Ceiling (100 ft) >30 10≤X≤30 4≤X<10 2≤X<4 <2
Wind Speed (kt) <15 15≤X<25 25≤X<30 ≥30
Wind Gust (kt) <15 15≤X<25 25≤X<35 ≥35
Weather No Wx Reported VCTS -TS,-FZRA TS,FZRA +TS,+FZRA
TAF
KPIT 191735Z 1918/2024 27007KT P6SM SCT060
  FM200100 VRB03KT P6SM SCT100
  FM201600 19005KT P6SM SCT040
  FM201900 22006KT P6SM VCTS BKN060CB


METAR
KPIT 191751Z 22007KT 10SM FEW035 FEW250 29/18 A3008 RMK AO2 SLP182 T02890178 10294 20200 57001
KPIT 191651Z VRB04KT 10SM FEW032 SCT250 28/17 A3008 RMK AO2 SLP182 T02780172
KPIT 191551Z 32005KT 10SM FEW025 SCT250 27/17 A3008 RMK AO2 SLP184 T02670172
KPIT 191451Z 34004KT 10SM FEW022 SCT250 24/18 A3008 RMK AO2 SLP185 T02440178 51012

Radar Display
Forecast Discussion